Terminal Aerodrome Forecast
Issued by NWS Green Bay, WI

Home | Current Version | Previous Version | Text Only | Print | Product List | Glossary Off
Versions: 1 2 3 4 5 6 7 8 9 10 11 12 13 14 15 16 17 18 19 20 21 22 23 24 25 26 27

000
FTUS43 KGRB 310525
TAFGRB
TAF
KGRB 310525Z 3106/0106 25004KT P6SM FEW100
     FM311300 29012G18KT P6SM SCT050
     FM311800 30015G22KT P6SM SCT060
      TEMPO 3118/3122 BKN060
     FM010100 28006KT P6SM SKC=

USA.gov is the U.S. government's official web portal to all federal, state and local government web resources and services.